aviador You're here:

SOCA Decoded Metar

CAYENNE in FRENCH GUYANA
Report Time2018-06-25 11:30:00
UTC Time2018-06-25 11:57:10
Flight Rules vfr VFR
WindVRB at 03 kt
Visibility9999 m
Phenomena:N/A
Clouds:N/A
Expected CloudBase > 400 ft AGL from Temp-Dew spread
CeilingNone
Temp25°C (ISA +10)
Dew Point24°C (94% RH)
QNH1014 hPa
Density Alt1,552 ft
Elevation30 ft
Report Wrong Elevation
Raw Report
METAR SOCA 251130Z AUTO VRB03KT CAVOK 25/24 Q1014 NOSIG=

Extra information for SOCA:More info

Metar Taf Metar & Taf Last 4 Metars F.Rules Stats Wind Profile Meteogram Temp Stats Airport Information Weather charts Add Link Nearby VenuesMetar ALERT Operation Metar Decoded Social comments